createdAt,value
2022-07-29T00:00:57.837Z,99555.63
2022-07-29T00:03:24.714Z,99553.34
2022-07-29T00:05:51.590Z,99549.13
2022-07-29T00:08:18.482Z,99551.78
2022-07-29T00:10:45.310Z,99555.28
2022-07-29T00:13:12.178Z,99548.53
2022-07-29T00:15:39.010Z,99550.09
2022-07-29T00:18:05.865Z,99541.44
2022-07-29T00:20:32.912Z,99537.22
2022-07-29T00:22:59.756Z,99534.47
2022-07-29T00:25:26.741Z,99543.47
2022-07-29T00:27:53.556Z,99542.88
2022-07-29T00:30:20.445Z,99532.53
2022-07-29T00:32:47.269Z,99522.81
2022-07-29T00:35:14.130Z,99523.28
2022-07-29T00:37:41.079Z,99518.72
2022-07-29T00:40:08.332Z,99525.69
2022-07-29T00:42:44.889Z,99520.88
2022-07-29T00:45:11.828Z,99523.53
2022-07-29T00:47:38.683Z,99520.06
2022-07-29T00:50:06.272Z,99518.97
2022-07-29T00:52:33.976Z,99510.44
2022-07-29T00:55:04.969Z,99518.38
2022-07-29T00:57:35.798Z,99517.28
2022-07-29T01:00:04.800Z,99514.88
2022-07-29T01:02:31.878Z,99516.59
2022-07-29T01:04:58.756Z,99521.03
2022-07-29T01:07:26.562Z,99524.38
2022-07-29T01:09:54.301Z,99520.63
2022-07-29T01:12:26.199Z,99522.59
2022-07-29T01:14:54.297Z,99519.81
2022-07-29T01:17:24.151Z,99520.91
2022-07-29T01:19:59.167Z,99523.56
2022-07-29T01:22:28.510Z,99527.25
2022-07-29T01:24:55.312Z,99524.84
2022-07-29T01:27:22.101Z,99530.16
2022-07-29T01:29:53.395Z,99537.34
2022-07-29T01:32:28.527Z,99532.91
2022-07-29T01:35:14.821Z,99533.25
2022-07-29T01:37:51.154Z,99539.25
2022-07-29T01:40:30.050Z,99541.22
2022-07-29T01:42:58.216Z,99534.59
2022-07-29T01:45:39.653Z,99535.19
2022-07-29T01:48:28.454Z,99533.97
2022-07-29T01:51:15.553Z,99533.75
2022-07-29T01:53:54.797Z,99541.78
2022-07-29T01:56:23.334Z,99549.25
2022-07-29T01:58:50.625Z,99550.31
2022-07-29T02:01:18.866Z,99547.22
2022-07-29T02:03:46.853Z,99561.75
2022-07-29T02:06:17.148Z,99547.69
2022-07-29T02:08:45.346Z,99547.56
2022-07-29T02:11:12.429Z,99546.00
2022-07-29T02:13:40.011Z,99550.34
2022-07-29T02:16:07.914Z,99548.63
2022-07-29T02:18:36.973Z,99544.56
2022-07-29T02:21:04.015Z,99545.50
2022-07-29T02:23:31.923Z,99540.59
2022-07-29T02:26:17.909Z,99534.84
2022-07-29T02:28:45.727Z,99535.31
2022-07-29T02:31:13.455Z,99540.72
2022-07-29T02:33:41.265Z,99540.00
2022-07-29T02:36:08.605Z,99536.50
2022-07-29T02:38:36.679Z,99528.94
2022-07-29T02:41:06.604Z,99537.56
2022-07-29T02:43:34.676Z,99540.00
2022-07-29T02:46:03.494Z,99539.25
2022-07-29T02:48:38.258Z,99535.81
2022-07-29T02:51:09.509Z,99533.50
2022-07-29T02:53:42.433Z,99535.53
2022-07-29T02:56:13.738Z,99529.66
2022-07-29T02:58:50.391Z,99530.13
2022-07-29T03:01:21.860Z,99536.28
2022-07-29T03:03:49.937Z,99534.00
2022-07-29T03:06:31.060Z,99531.22
2022-07-29T03:09:10.480Z,99524.72
2022-07-29T03:11:42.495Z,99534.56
2022-07-29T03:14:21.257Z,99527.72
2022-07-29T03:16:49.038Z,99530.50
2022-07-29T03:19:15.924Z,99524.97
2022-07-29T03:21:42.836Z,99518.00
2022-07-29T03:24:10.883Z,99515.72
2022-07-29T03:26:38.021Z,99509.22
2022-07-29T03:29:04.917Z,99508.94
2022-07-29T03:31:31.990Z,99511.81
2022-07-29T03:34:00.459Z,99508.53
2022-07-29T03:36:27.422Z,99506.97
2022-07-29T03:38:54.250Z,99505.41
2022-07-29T03:41:22.534Z,99507.53
2022-07-29T03:43:50.567Z,99510.03
2022-07-29T03:46:18.688Z,99503.75
2022-07-29T03:48:49.320Z,99508.59
2022-07-29T03:51:16.218Z,99509.78
2022-07-29T03:53:43.287Z,99502.72
2022-07-29T03:56:10.882Z,99508.88
2022-07-29T03:58:38.536Z,99508.88
2022-07-29T04:01:05.507Z,99501.44
2022-07-29T04:03:32.422Z,99498.06
2022-07-29T04:06:03.288Z,99510.31
2022-07-29T04:08:30.138Z,99502.19
2022-07-29T04:10:56.970Z,99507.38
2022-07-29T04:13:23.982Z,99501.31
2022-07-29T04:15:50.871Z,99501.22
2022-07-29T04:18:17.781Z,99500.78
2022-07-29T04:20:44.914Z,99498.91
2022-07-29T04:23:11.765Z,99503.63
2022-07-29T04:25:39.312Z,99512.59
2022-07-29T04:28:06.515Z,99508.88
2022-07-29T04:30:33.877Z,99514.59
2022-07-29T04:33:01.634Z,99514.72
2022-07-29T04:35:28.944Z,99510.41
2022-07-29T04:37:55.813Z,99511.25
2022-07-29T04:40:22.880Z,99507.72
2022-07-29T04:42:49.751Z,99508.66
2022-07-29T04:45:16.661Z,99504.22
2022-07-29T04:47:49.803Z,99505.31
2022-07-29T04:50:16.717Z,99511.28
2022-07-29T04:52:44.711Z,99508.03
2022-07-29T04:55:11.942Z,99508.03
2022-07-29T04:57:38.783Z,99512.13
2022-07-29T05:00:06.339Z,99515.72
2022-07-29T05:02:33.252Z,99516.56
2022-07-29T05:05:00.129Z,99518.03
2022-07-29T05:07:26.957Z,99513.69
2022-07-29T05:09:53.784Z,99513.22
2022-07-29T05:12:20.644Z,99516.81
2022-07-29T05:14:47.491Z,99519.41
2022-07-29T05:17:14.369Z,99516.38
2022-07-29T05:19:41.281Z,99522.28
2022-07-29T05:22:08.117Z,99525.63
2022-07-29T05:24:34.992Z,99524.59
2022-07-29T05:27:01.852Z,99515.91
2022-07-29T05:29:42.703Z,99512.81
2022-07-29T05:32:40.785Z,99524.69
2022-07-29T05:35:07.868Z,99522.06
2022-07-29T05:37:35.011Z,99520.84
2022-07-29T05:40:02.249Z,99530.47
2022-07-29T05:42:29.062Z,99524.72
2022-07-29T05:44:56.282Z,99530.00
2022-07-29T05:47:23.406Z,99531.94
2022-07-29T05:49:50.396Z,99537.59
2022-07-29T05:52:17.669Z,99531.69
2022-07-29T05:54:44.512Z,99542.50
2022-07-29T05:57:18.252Z,99543.94
2022-07-29T05:59:45.205Z,99530.00
2022-07-29T06:02:12.056Z,99528.09
2022-07-29T06:04:39.002Z,99533.97
2022-07-29T06:07:06.032Z,99529.28
2022-07-29T06:09:36.222Z,99534.13
2022-07-29T06:12:03.819Z,99540.34
2022-07-29T06:14:30.761Z,99547.69
2022-07-29T06:16:57.588Z,99550.56
2022-07-29T06:19:24.453Z,99545.19
2022-07-29T06:21:51.282Z,99544.81
2022-07-29T06:24:18.531Z,99559.81
2022-07-29T06:26:45.985Z,99550.16
2022-07-29T06:29:12.863Z,99554.88
2022-07-29T06:31:39.755Z,99546.03
2022-07-29T06:34:06.706Z,99553.22
2022-07-29T06:36:37.775Z,99558.19
2022-07-29T06:39:08.217Z,99550.09
2022-07-29T06:41:35.363Z,99554.41
2022-07-29T06:44:09.480Z,99549.34
2022-07-29T06:46:36.398Z,99550.94
2022-07-29T06:49:03.632Z,99542.66
2022-07-29T06:51:30.524Z,99546.47
2022-07-29T06:53:59.475Z,99550.22
2022-07-29T06:56:30.668Z,99557.16
2022-07-29T06:58:57.500Z,99556.44
2022-07-29T07:01:24.450Z,99557.84
2022-07-29T07:03:51.329Z,99560.06
2022-07-29T07:06:18.164Z,99560.31
2022-07-29T07:08:45.068Z,99557.25
2022-07-29T07:11:12.882Z,99562.13
2022-07-29T07:13:39.784Z,99569.00
2022-07-29T07:16:06.614Z,99567.13
2022-07-29T07:18:33.476Z,99563.72
2022-07-29T07:21:00.317Z,99558.34
2022-07-29T07:23:27.195Z,99568.63
2022-07-29T07:25:54.049Z,99567.41
2022-07-29T07:28:24.590Z,99566.66
2022-07-29T07:30:52.359Z,99561.63
2022-07-29T07:33:19.183Z,99561.97
2022-07-29T07:35:46.045Z,99558.00
2022-07-29T07:38:13.033Z,99566.41
2022-07-29T07:40:39.921Z,99563.28
2022-07-29T07:43:06.805Z,99564.38
2022-07-29T07:45:33.740Z,99567.75
2022-07-29T07:48:00.973Z,99569.72
2022-07-29T07:50:27.839Z,99567.88
2022-07-29T07:52:55.856Z,99575.41
2022-07-29T07:55:22.719Z,99580.22
2022-07-29T07:57:49.550Z,99575.03
2022-07-29T08:00:17.293Z,99577.81
2022-07-29T08:02:44.319Z,99574.59
2022-07-29T08:05:12.791Z,99580.72
2022-07-29T08:07:39.943Z,99566.22
2022-07-29T08:10:07.020Z,99568.91
2022-07-29T08:12:35.686Z,99571.91
2022-07-29T08:15:02.813Z,99571.47
2022-07-29T08:17:29.658Z,99581.47
2022-07-29T08:19:56.473Z,99593.09
2022-07-29T08:22:23.319Z,99586.16
2022-07-29T08:24:50.403Z,99590.06
2022-07-29T08:27:41.768Z,99598.16
2022-07-29T08:30:07.227Z,99589.22
2022-07-29T08:32:52.699Z,99591.25
2022-07-29T08:35:21.490Z,99600.44
2022-07-29T08:37:48.392Z,99591.50
2022-07-29T08:40:15.238Z,99597.66
2022-07-29T08:42:42.084Z,99603.66
2022-07-29T08:45:09.372Z,99589.38
2022-07-29T08:47:36.348Z,99579.91
2022-07-29T08:50:03.377Z,99573.88
2022-07-29T08:52:32.329Z,99584.91
2022-07-29T08:54:59.804Z,99576.31
2022-07-29T08:57:27.223Z,99580.03
2022-07-29T09:00:11.759Z,99573.47
2022-07-29T09:02:44.592Z,99577.97
2022-07-29T09:05:13.713Z,99586.88
2022-07-29T09:07:40.603Z,99578.78
2022-07-29T09:10:07.728Z,99575.75
2022-07-29T09:12:38.065Z,99571.25
2022-07-29T09:15:05.403Z,99576.00
2022-07-29T09:17:41.225Z,99574.06
2022-07-29T09:20:15.425Z,99567.06
2022-07-29T09:22:42.468Z,99571.78
2022-07-29T09:25:09.667Z,99571.66
2022-07-29T09:27:36.484Z,99577.28
2022-07-29T09:30:07.742Z,99564.41
2022-07-29T09:32:54.368Z,99566.56
2022-07-29T09:35:23.015Z,99567.81
2022-07-29T09:37:50.074Z,99560.47
2022-07-29T09:40:28.939Z,99557.19
2022-07-29T09:42:55.838Z,99552.63
2022-07-29T09:45:32.865Z,99555.22
2022-07-29T09:47:59.970Z,99554.75
2022-07-29T09:50:39.705Z,99545.25
2022-07-29T09:53:06.620Z,99550.00
2022-07-29T09:55:33.431Z,99542.53
2022-07-29T09:58:20.696Z,99549.84
2022-07-29T10:00:48.429Z,99551.34
2022-07-29T10:03:15.996Z,99545.88
2022-07-29T10:05:43.737Z,99546.56
2022-07-29T10:08:11.101Z,99543.84
2022-07-29T10:10:39.130Z,99537.41
2022-07-29T10:13:16.417Z,99544.38
2022-07-29T10:15:44.673Z,99539.66
2022-07-29T10:18:12.685Z,99542.97
2022-07-29T10:20:39.893Z,99545.13
2022-07-29T10:23:06.814Z,99542.31
2022-07-29T10:25:33.659Z,99541.84
2022-07-29T10:28:00.535Z,99539.31
2022-07-29T10:30:27.562Z,99535.25
2022-07-29T10:33:06.594Z,99545.63
2022-07-29T10:35:40.926Z,99537.88
2022-07-29T10:38:07.780Z,99535.63
2022-07-29T10:40:57.286Z,99532.75
2022-07-29T10:43:29.820Z,99523.13
2022-07-29T10:45:57.864Z,99522.59
2022-07-29T10:48:24.799Z,99522.91
2022-07-29T10:50:54.391Z,99512.47
2022-07-29T10:53:22.850Z,99522.56
2022-07-29T10:55:50.114Z,99515.03
2022-07-29T10:58:19.961Z,99523.72
2022-07-29T11:00:49.366Z,99519.72
2022-07-29T11:03:36.766Z,99513.00
2022-07-29T11:06:08.808Z,99511.47
2022-07-29T11:08:35.766Z,99512.28
2022-07-29T11:11:22.124Z,99515.03
2022-07-29T11:13:50.888Z,99508.06
2022-07-29T11:16:20.214Z,99516.38
2022-07-29T11:19:30.862Z,99513.19
2022-07-29T11:21:58.585Z,99516.31
2022-07-29T11:24:31.713Z,99512.13
2022-07-29T11:27:18.217Z,99509.13
2022-07-29T11:29:51.232Z,99509.22
2022-07-29T11:32:18.516Z,99501.06
2022-07-29T11:35:17.527Z,99504.53
2022-07-29T11:38:32.522Z,99500.75
2022-07-29T11:41:17.793Z,99513.31
2022-07-29T11:43:47.946Z,99501.94
2022-07-29T11:46:37.797Z,99498.94
2022-07-29T11:49:09.257Z,99501.00
2022-07-29T11:51:57.831Z,99501.16
2022-07-29T11:54:27.341Z,99495.91
2022-07-29T11:56:55.050Z,99487.16
2022-07-29T11:59:22.145Z,99487.53
2022-07-29T12:02:12.022Z,99488.00
2022-07-29T12:05:11.003Z,99475.69
2022-07-29T12:07:39.249Z,99477.84
2022-07-29T12:10:11.318Z,99481.06
2022-07-29T12:12:51.939Z,99485.00
2022-07-29T12:15:20.377Z,99481.28
2022-07-29T12:17:47.999Z,99483.72
2022-07-29T12:20:23.144Z,99478.16
2022-07-29T12:22:51.996Z,99474.13
2022-07-29T12:25:34.683Z,99461.56
2022-07-29T12:28:02.533Z,99468.06
2022-07-29T12:30:55.784Z,99457.06
2022-07-29T12:33:22.914Z,99462.00
2022-07-29T12:36:03.789Z,99461.63
2022-07-29T12:38:34.066Z,99451.44
2022-07-29T12:41:01.346Z,99451.78
2022-07-29T12:43:31.423Z,99451.13
2022-07-29T12:45:58.323Z,99451.13
2022-07-29T12:48:33.966Z,99453.44
2022-07-29T12:51:01.993Z,99448.44
2022-07-29T12:53:29.593Z,99440.25
2022-07-29T12:55:58.027Z,99448.19
2022-07-29T12:58:32.440Z,99435.78
2022-07-29T13:01:19.602Z,99436.31
2022-07-29T13:03:57.561Z,99433.19
2022-07-29T13:06:28.151Z,99424.06
2022-07-29T13:09:01.920Z,99421.25
2022-07-29T13:11:36.081Z,99419.56
2022-07-29T13:14:06.737Z,99416.41
2022-07-29T13:16:34.185Z,99411.44
2022-07-29T13:19:05.309Z,99420.59
2022-07-29T13:21:32.233Z,99412.97
2022-07-29T13:23:59.099Z,99410.47
2022-07-29T13:26:25.947Z,99413.44
2022-07-29T13:28:52.750Z,99415.75
2022-07-29T13:31:19.569Z,99409.59
2022-07-29T13:33:46.462Z,99401.31
2022-07-29T13:36:13.284Z,99395.88
2022-07-29T13:38:40.148Z,99404.28
2022-07-29T13:41:07.007Z,99401.25
2022-07-29T13:43:33.858Z,99400.94
2022-07-29T13:46:00.734Z,99397.25
2022-07-29T13:48:27.605Z,99394.75
2022-07-29T13:50:54.426Z,99399.59
2022-07-29T13:53:26.824Z,99398.97
2022-07-29T13:55:54.396Z,99389.50
2022-07-29T13:58:21.207Z,99395.53
2022-07-29T14:00:48.056Z,99385.88
2022-07-29T14:03:14.860Z,99393.25
2022-07-29T14:05:41.724Z,99382.72
2022-07-29T14:08:08.563Z,99375.63
2022-07-29T14:10:35.411Z,99377.06
2022-07-29T14:13:02.226Z,99380.47
2022-07-29T14:15:29.062Z,99379.25
2022-07-29T14:17:55.900Z,99377.34
2022-07-29T14:20:22.737Z,99372.69
2022-07-29T14:22:49.603Z,99369.75
2022-07-29T14:25:17.190Z,99369.63
2022-07-29T14:27:44.377Z,99369.94
2022-07-29T14:30:11.434Z,99366.97
2022-07-29T14:32:38.269Z,99365.66
2022-07-29T14:35:05.734Z,99359.19
2022-07-29T14:37:39.380Z,99356.38
2022-07-29T14:40:08.182Z,99363.97
2022-07-29T14:42:35.011Z,99356.53
2022-07-29T14:45:01.901Z,99353.13
2022-07-29T14:47:28.729Z,99356.97
2022-07-29T14:49:55.567Z,99361.75
2022-07-29T14:52:22.408Z,99355.69
2022-07-29T14:54:49.358Z,99369.50
2022-07-29T14:57:16.188Z,99368.72
2022-07-29T14:59:43.278Z,99365.41
2022-07-29T15:02:10.243Z,99367.09
2022-07-29T15:04:37.144Z,99357.00
2022-07-29T15:07:04.434Z,99362.28
2022-07-29T15:09:31.326Z,99354.56
2022-07-29T15:11:58.395Z,99359.94
2022-07-29T15:14:25.465Z,99359.25
2022-07-29T15:16:52.891Z,99357.25
2022-07-29T15:19:20.118Z,99361.63
2022-07-29T15:21:48.797Z,99351.75
2022-07-29T15:24:16.601Z,99359.00
2022-07-29T15:26:44.612Z,99348.75
2022-07-29T15:29:11.661Z,99340.41
2022-07-29T15:31:38.630Z,99341.72
2022-07-29T15:34:06.269Z,99350.06
2022-07-29T15:36:51.434Z,99390.94
2022-07-29T15:39:19.953Z,99402.47
2022-07-29T15:41:46.814Z,99419.00
2022-07-29T15:44:13.694Z,99440.50
2022-07-29T15:46:40.797Z,99467.38
2022-07-29T15:49:08.068Z,99428.56
2022-07-29T15:51:35.115Z,99426.56
2022-07-29T15:54:03.121Z,99435.16
2022-07-29T15:56:30.267Z,99420.50
2022-07-29T15:58:57.474Z,99480.31
2022-07-29T16:01:24.380Z,99497.69
2022-07-29T16:03:51.264Z,99545.50
2022-07-29T16:06:18.228Z,99539.88
2022-07-29T16:08:45.176Z,99544.84
2022-07-29T16:11:12.004Z,99530.88
2022-07-29T16:13:38.837Z,99514.53
2022-07-29T16:16:05.640Z,99519.09
2022-07-29T16:18:32.521Z,99516.81
2022-07-29T16:20:59.401Z,99549.84
2022-07-29T16:23:26.245Z,99547.69
2022-07-29T16:26:01.230Z,99556.09
2022-07-29T16:28:28.986Z,99549.00
2022-07-29T16:30:56.067Z,99543.81
2022-07-29T16:33:23.330Z,99528.03
2022-07-29T16:35:50.597Z,99537.75
2022-07-29T16:38:17.443Z,99532.50
2022-07-29T16:40:44.446Z,99529.22
2022-07-29T16:43:11.301Z,99540.66
2022-07-29T16:45:45.575Z,99536.06
2022-07-29T16:48:13.695Z,99530.00
2022-07-29T16:50:41.185Z,99532.72
2022-07-29T16:53:10.814Z,99528.19
2022-07-29T16:55:37.992Z,99525.13
2022-07-29T16:58:04.956Z,99524.03
2022-07-29T17:00:31.854Z,99530.56
2022-07-29T17:02:58.727Z,99542.84
2022-07-29T17:05:26.459Z,99559.69
2022-07-29T17:07:53.337Z,99562.56
2022-07-29T17:10:20.224Z,99560.25
2022-07-29T17:12:47.056Z,99552.53
2022-07-29T17:15:13.887Z,99542.84
2022-07-29T17:17:56.479Z,99546.63
2022-07-29T17:20:23.683Z,99549.22
2022-07-29T17:22:50.568Z,99533.41
2022-07-29T17:25:20.619Z,99522.16
2022-07-29T17:27:49.065Z,99520.88
2022-07-29T17:30:16.059Z,99522.06
2022-07-29T17:32:42.947Z,99525.00
2022-07-29T17:35:09.806Z,99533.09
2022-07-29T17:37:36.651Z,99530.63
2022-07-29T17:40:03.603Z,99545.00
2022-07-29T17:42:30.433Z,99546.66
2022-07-29T17:44:57.282Z,99549.63
2022-07-29T17:47:24.131Z,99536.13
2022-07-29T17:49:50.956Z,99533.84
2022-07-29T17:52:17.817Z,99543.88
2022-07-29T17:54:44.673Z,99543.03
2022-07-29T17:57:11.520Z,99555.84
2022-07-29T17:59:38.356Z,99557.47
2022-07-29T18:02:05.230Z,99565.66
2022-07-29T18:04:32.106Z,99556.34
2022-07-29T18:06:59.306Z,99558.69
2022-07-29T18:09:26.463Z,99559.19
2022-07-29T18:11:53.280Z,99556.94
2022-07-29T18:14:20.148Z,99560.69
2022-07-29T18:16:47.097Z,99562.97
2022-07-29T18:19:14.103Z,99568.78
2022-07-29T18:21:50.898Z,99571.97
2022-07-29T18:24:23.182Z,99587.06
2022-07-29T18:26:50.007Z,99582.88
2022-07-29T18:29:16.855Z,99588.78
2022-07-29T18:31:43.687Z,99599.25
2022-07-29T18:34:10.532Z,99607.03
2022-07-29T18:36:37.389Z,99607.22
2022-07-29T18:39:04.230Z,99603.78
2022-07-29T18:41:31.093Z,99599.00
2022-07-29T18:43:57.937Z,99601.94
2022-07-29T18:46:25.421Z,99603.28
2022-07-29T18:48:52.591Z,99606.22
2022-07-29T18:51:19.776Z,99603.97
2022-07-29T18:53:46.594Z,99618.84
2022-07-29T18:56:13.459Z,99627.66
2022-07-29T18:58:40.323Z,99643.50
2022-07-29T19:01:07.189Z,99658.28
2022-07-29T19:03:34.040Z,99662.84
2022-07-29T19:06:00.949Z,99678.34
2022-07-29T19:08:27.789Z,99697.44
2022-07-29T19:10:54.644Z,99721.25
2022-07-29T19:13:21.487Z,99727.38
2022-07-29T19:15:48.376Z,99728.31
2022-07-29T19:18:15.266Z,99735.84
2022-07-29T19:20:42.169Z,99732.88
2022-07-29T19:23:08.987Z,99729.16
2022-07-29T19:25:36.084Z,99725.09
2022-07-29T19:28:03.078Z,99732.81
2022-07-29T19:30:29.920Z,99734.25
2022-07-29T19:32:56.793Z,99720.44
2022-07-29T19:35:23.696Z,99723.19
2022-07-29T19:37:51.118Z,99739.56
2022-07-29T19:40:18.038Z,99749.25
2022-07-29T19:42:44.910Z,99761.25
2022-07-29T19:45:11.763Z,99759.34
2022-07-29T19:47:38.597Z,99763.66
2022-07-29T19:50:05.841Z,99746.34
2022-07-29T19:52:32.714Z,99743.22
2022-07-29T19:55:02.005Z,99752.94
2022-07-29T20:00:20.973Z,99798.25
2022-07-29T20:02:48.171Z,99791.50
2022-07-29T20:05:15.091Z,99794.34
2022-07-29T20:07:41.942Z,99781.47
2022-07-29T20:10:09.356Z,99784.25
2022-07-29T20:12:36.340Z,99794.44
2022-07-29T20:15:04.072Z,99793.72
2022-07-29T20:17:30.931Z,99794.72
2022-07-29T20:19:57.784Z,99794.81
2022-07-29T20:22:24.639Z,99789.78
2022-07-29T20:24:51.487Z,99780.06
2022-07-29T20:27:18.318Z,99788.19
2022-07-29T20:29:45.169Z,99780.28
2022-07-29T20:32:12.030Z,99780.75
2022-07-29T20:34:38.967Z,99785.88
2022-07-29T20:37:05.849Z,99790.25
2022-07-29T20:39:33.251Z,99796.63
2022-07-29T20:42:00.102Z,99790.75
2022-07-29T20:44:26.941Z,99789.81
2022-07-29T20:46:53.839Z,99780.84
2022-07-29T20:49:20.702Z,99776.16
2022-07-29T20:51:47.571Z,99781.91
2022-07-29T20:54:14.394Z,99778.53
2022-07-29T20:56:41.229Z,99777.53
2022-07-29T20:59:08.442Z,99788.50
2022-07-29T21:01:35.329Z,99782.91
2022-07-29T21:04:02.198Z,99776.22
2022-07-29T21:06:29.436Z,99773.50
2022-07-29T21:08:56.283Z,99772.31
2022-07-29T21:11:44.692Z,99776.84
2022-07-29T21:14:10.203Z,99767.66
2022-07-29T21:16:37.049Z,99773.69
2022-07-29T21:19:03.883Z,99780.13
2022-07-29T21:21:30.725Z,99775.72
2022-07-29T21:23:57.564Z,99784.00
2022-07-29T21:26:24.393Z,99765.56
2022-07-29T21:28:51.246Z,99766.41
2022-07-29T21:31:18.104Z,99767.50
2022-07-29T21:33:46.236Z,99772.47
2022-07-29T21:36:46.431Z,99778.03
2022-07-29T21:39:00.175Z,99768.88
2022-07-29T21:41:27.005Z,99762.75
2022-07-29T21:43:53.843Z,99761.50
2022-07-29T21:46:24.547Z,99760.06
2022-07-29T21:48:51.674Z,99764.09
2022-07-29T21:51:18.519Z,99761.78
2022-07-29T21:53:45.344Z,99759.66
2022-07-29T21:56:14.755Z,99759.28
2022-07-29T21:58:41.931Z,99757.22
2022-07-29T22:01:08.817Z,99747.31
2022-07-29T22:03:35.694Z,99740.13
2022-07-29T22:06:02.565Z,99741.63
2022-07-29T22:08:29.418Z,99748.19
2022-07-29T22:10:56.282Z,99752.22
2022-07-29T22:13:23.132Z,99754.38
2022-07-29T22:15:49.951Z,99744.44
2022-07-29T22:18:20.763Z,99742.72
2022-07-29T22:20:48.981Z,99745.69
2022-07-29T22:23:15.808Z,99753.16
2022-07-29T22:25:42.664Z,99751.69
2022-07-29T22:28:09.475Z,99758.25
2022-07-29T22:30:37.301Z,99756.78
2022-07-29T22:33:04.205Z,99758.50
2022-07-29T22:35:31.067Z,99755.94
2022-07-29T22:37:57.942Z,99750.66
2022-07-29T22:40:30.500Z,99747.03
2022-07-29T22:42:57.706Z,99750.22
2022-07-29T22:45:24.558Z,99761.69
2022-07-29T22:47:57.459Z,99765.09
2022-07-29T22:50:26.468Z,99763.81
2022-07-29T22:52:53.293Z,99762.56
2022-07-29T22:55:20.161Z,99758.97
2022-07-29T22:57:47.006Z,99758.34
2022-07-29T23:00:14.073Z,99750.72
2022-07-29T23:02:40.927Z,99755.41
2022-07-29T23:05:07.965Z,99745.47
2022-07-29T23:07:34.946Z,99750.34
2022-07-29T23:10:01.925Z,99750.34
2022-07-29T23:12:28.786Z,99748.66
2022-07-29T23:14:55.616Z,99750.75
2022-07-29T23:17:22.504Z,99751.84
2022-07-29T23:19:49.339Z,99758.81
2022-07-29T23:22:16.497Z,99761.78
2022-07-29T23:24:45.466Z,99759.06
2022-07-29T23:27:12.336Z,99752.09
2022-07-29T23:29:39.168Z,99747.22
2022-07-29T23:32:06.081Z,99757.38
2022-07-29T23:34:32.931Z,99760.78
2022-07-29T23:37:00.009Z,99769.03
2022-07-29T23:39:27.015Z,99766.47
2022-07-29T23:41:53.883Z,99763.13
2022-07-29T23:44:20.819Z,99769.25
2022-07-29T23:46:47.697Z,99763.75
2022-07-29T23:49:14.655Z,99767.16
2022-07-29T23:51:41.811Z,99765.22
2022-07-29T23:54:08.676Z,99767.16
2022-07-29T23:56:35.497Z,99765.69
2022-07-29T23:59:05.800Z,99761.22
